createdAt,value
2023-01-05T00:01:37.321Z,1.92
2023-01-05T00:04:06.729Z,0.55
2023-01-05T00:06:35.154Z,1.20
2023-01-05T00:09:03.101Z,2.05
2023-01-05T00:11:49.907Z,1.02
2023-01-05T00:14:40.024Z,1.25
2023-01-05T00:17:28.914Z,0.75
2023-01-05T00:20:15.286Z,1.42
2023-01-05T00:22:51.604Z,1.05
2023-01-05T00:25:24.884Z,1.10
2023-01-05T00:27:59.541Z,1.02
2023-01-05T00:30:34.359Z,1.58
2023-01-05T00:33:02.380Z,3.60
2023-01-05T00:35:32.591Z,0.70
2023-01-05T00:38:02.169Z,1.13
2023-01-05T00:40:30.132Z,1.20
2023-01-05T00:42:58.418Z,0.45
2023-01-05T00:45:26.496Z,1.38
2023-01-05T00:47:56.189Z,0.93
2023-01-05T00:50:24.836Z,3.75
2023-01-05T00:52:52.775Z,0.35
2023-01-05T00:55:20.812Z,1.00
2023-01-05T00:57:48.783Z,1.55
2023-01-05T01:00:19.606Z,0.95
2023-01-05T01:02:48.171Z,2.47
2023-01-05T01:05:16.183Z,1.30
2023-01-05T01:07:44.240Z,0.88
2023-01-05T01:10:13.119Z,0.80
2023-01-05T01:15:10.264Z,1.92
2023-01-05T01:17:38.239Z,0.85
2023-01-05T01:20:06.775Z,1.60
2023-01-05T01:22:34.737Z,0.95
2023-01-05T01:25:02.689Z,0.65
2023-01-05T01:27:34.083Z,1.25
2023-01-05T01:30:02.395Z,1.27
2023-01-05T01:32:30.423Z,0.43
2023-01-05T01:34:58.389Z,0.45
2023-01-05T01:37:26.404Z,0.75
2023-01-05T01:39:56.905Z,0.75
2023-01-05T01:42:25.662Z,0.90
2023-01-05T01:45:16.779Z,1.15
2023-01-05T01:47:58.183Z,0.68
2023-01-05T01:53:10.499Z,1.15
2023-01-05T01:55:39.951Z,0.63
2023-01-05T01:58:12.679Z,1.73
2023-01-05T02:00:42.790Z,0.50
2023-01-05T02:03:11.212Z,0.65
2023-01-05T02:05:40.176Z,0.30
2023-01-05T02:08:14.195Z,0.60
2023-01-05T02:10:59.845Z,1.30
2023-01-05T02:14:32.883Z,0.80
2023-01-05T02:17:18.281Z,0.85
2023-01-05T02:20:23.227Z,0.60
2023-01-05T02:23:10.253Z,1.33
2023-01-05T02:25:55.052Z,0.73
2023-01-05T02:28:55.476Z,0.50
2023-01-05T02:31:30.091Z,0.50
2023-01-05T02:34:10.484Z,1.52
2023-01-05T02:37:09.258Z,0.30
2023-01-05T02:39:52.080Z,1.73
2023-01-05T02:42:27.098Z,0.47
2023-01-05T02:44:55.206Z,0.45
2023-01-05T02:47:31.809Z,0.30
2023-01-05T02:50:06.904Z,0.25
2023-01-05T02:52:56.587Z,0.40
2023-01-05T02:55:55.311Z,1.65
2023-01-05T02:58:44.636Z,0.22
2023-01-05T03:01:24.128Z,0.40
2023-01-05T03:03:59.317Z,0.30
2023-01-05T03:06:34.086Z,0.40
2023-01-05T03:09:05.645Z,0.20
2023-01-05T03:12:25.120Z,0.40
2023-01-05T03:15:07.576Z,0.52
2023-01-05T03:17:47.927Z,0.40
2023-01-05T03:20:21.600Z,4.35
2023-01-05T03:23:09.666Z,0.20
2023-01-05T03:25:59.782Z,0.28
2023-01-05T03:29:10.139Z,0.45
2023-01-05T03:32:11.868Z,0.28
2023-01-05T03:35:10.356Z,0.95
2023-01-05T03:37:52.399Z,0.50
2023-01-05T03:40:33.167Z,0.17
2023-01-05T03:43:02.246Z,0.13
2023-01-05T03:45:45.993Z,0.70
2023-01-05T03:48:22.245Z,0.15
2023-01-05T03:50:50.273Z,0.68
2023-01-05T03:53:20.254Z,0.40
2023-01-05T03:55:48.216Z,0.20
2023-01-05T03:58:16.170Z,2.58
2023-01-05T04:00:48.479Z,0.13
2023-01-05T04:03:19.462Z,0.80
2023-01-05T04:05:47.906Z,0.20
2023-01-05T04:08:17.901Z,0.20
2023-01-05T04:10:45.884Z,0.10
2023-01-05T04:13:16.660Z,2.10
2023-01-05T04:15:46.708Z,0.20
2023-01-05T04:18:18.298Z,0.43
2023-01-05T04:20:47.377Z,0.10
2023-01-05T04:23:15.309Z,0.30
2023-01-05T04:25:43.547Z,1.10
2023-01-05T04:28:20.090Z,0.40
2023-01-05T04:30:54.057Z,1.00
2023-01-05T04:33:24.764Z,0.20
2023-01-05T04:35:53.806Z,0.10
2023-01-05T04:38:22.048Z,0.10
2023-01-05T04:40:51.905Z,0.15
2023-01-05T04:43:21.481Z,0.25
2023-01-05T04:45:51.320Z,0.13
2023-01-05T04:48:20.408Z,0.10
2023-01-05T04:50:54.884Z,0.20
2023-01-05T04:53:28.876Z,0.30
2023-01-05T04:55:57.345Z,1.10
2023-01-05T04:58:26.125Z,0.20
2023-01-05T05:00:58.149Z,0.20
2023-01-05T05:03:33.378Z,0.20
2023-01-05T05:06:05.741Z,0.47
2023-01-05T05:08:34.203Z,0.40
2023-01-05T05:11:04.193Z,1.70
2023-01-05T05:13:34.760Z,0.27
2023-01-05T05:16:04.047Z,0.20
2023-01-05T05:18:34.289Z,0.10
2023-01-05T05:21:02.953Z,0.60
2023-01-05T05:23:34.759Z,0.32
2023-01-05T05:26:02.724Z,0.47
2023-01-05T05:28:31.083Z,0.20
2023-01-05T05:30:59.154Z,0.70
2023-01-05T05:33:27.600Z,1.10
2023-01-05T05:35:55.542Z,0.35
2023-01-05T05:38:23.441Z,0.40
2023-01-05T05:40:51.458Z,1.80
2023-01-05T05:43:19.437Z,1.23
2023-01-05T05:45:50.712Z,1.67
2023-01-05T05:48:19.965Z,2.67
2023-01-05T05:50:48.231Z,0.73
2023-01-05T05:53:16.599Z,4.50
2023-01-05T05:55:44.651Z,2.20
2023-01-05T05:58:12.747Z,3.90
2023-01-05T06:00:40.701Z,5.18
2023-01-05T06:03:08.821Z,5.40
2023-01-05T06:05:39.939Z,3.60
2023-01-05T06:08:10.041Z,6.03
2023-01-05T06:10:38.003Z,4.80
2023-01-05T06:13:06.689Z,6.90
2023-01-05T06:15:34.592Z,5.38
2023-01-05T06:20:47.086Z,6.90
2023-01-05T06:23:15.451Z,8.38
2023-01-05T06:25:43.500Z,5.65
2023-01-05T06:28:13.696Z,8.20
2023-01-05T06:30:44.934Z,6.82
2023-01-05T06:33:13.292Z,8.00
2023-01-05T06:35:41.217Z,6.68
2023-01-05T06:38:09.201Z,5.90
2023-01-05T06:40:37.319Z,6.75
2023-01-05T06:43:05.247Z,8.85
2023-01-05T06:45:33.610Z,12.48
2023-01-05T06:48:02.160Z,8.20
2023-01-05T06:50:34.356Z,7.22
2023-01-05T06:53:03.106Z,12.45
2023-01-05T06:55:31.231Z,9.23
2023-01-05T06:58:01.258Z,6.15
2023-01-05T07:00:30.181Z,10.52
2023-01-05T07:02:58.221Z,7.05
2023-01-05T07:05:26.345Z,16.35
2023-01-05T07:07:55.199Z,10.05
2023-01-05T07:10:24.856Z,8.48
2023-01-05T07:15:33.839Z,13.43
2023-01-05T07:18:03.317Z,8.20
2023-01-05T07:20:31.215Z,9.48
2023-01-05T07:22:59.098Z,7.40
2023-01-05T07:25:35.139Z,9.02
2023-01-05T07:28:03.200Z,13.70
2023-01-05T07:30:32.844Z,9.70
2023-01-05T07:33:06.397Z,12.40
2023-01-05T07:35:34.471Z,12.35
2023-01-05T07:38:02.553Z,9.98
2023-01-05T07:40:30.540Z,13.05
2023-01-05T07:42:58.455Z,8.07
2023-01-05T07:45:26.465Z,9.60
2023-01-05T07:47:54.586Z,9.98
2023-01-05T07:50:22.555Z,10.88
2023-01-05T07:52:50.522Z,12.32
2023-01-05T07:55:18.470Z,7.60
2023-01-05T07:57:47.999Z,12.38
2023-01-05T08:00:16.172Z,11.93
2023-01-05T08:02:44.218Z,12.55
2023-01-05T08:05:12.308Z,7.90
2023-01-05T08:07:40.217Z,8.48
2023-01-05T08:10:27.123Z,10.40
2023-01-05T08:13:13.617Z,11.45
2023-01-05T08:15:44.791Z,11.98
2023-01-05T08:18:20.912Z,6.03
2023-01-05T08:20:58.412Z,11.35
2023-01-05T08:23:28.221Z,13.07
2023-01-05T08:25:56.789Z,8.25
2023-01-05T08:28:35.030Z,7.85
2023-01-05T08:31:12.454Z,12.75
2023-01-05T08:33:40.422Z,11.52
2023-01-05T08:36:14.309Z,13.90
2023-01-05T08:38:49.418Z,10.85
2023-01-05T08:41:29.555Z,9.07
2023-01-05T08:44:03.280Z,11.05
2023-01-05T08:46:35.786Z,8.60
2023-01-05T08:49:07.484Z,11.30
2023-01-05T08:51:36.066Z,11.65
2023-01-05T08:54:04.237Z,9.27
2023-01-05T08:56:38.394Z,10.90
2023-01-05T08:59:07.324Z,9.68
2023-01-05T09:01:35.400Z,10.02
2023-01-05T09:04:03.485Z,9.45
2023-01-05T09:06:31.373Z,6.88
2023-01-05T09:08:59.268Z,8.63
2023-01-05T09:11:27.683Z,9.43
2023-01-05T09:13:57.907Z,7.03
2023-01-05T09:17:04.780Z,8.75
2023-01-05T09:19:16.252Z,10.13
2023-01-05T09:21:44.264Z,8.80
2023-01-05T09:24:15.870Z,5.93
2023-01-05T09:26:43.999Z,10.93
2023-01-05T09:29:13.318Z,7.45
2023-01-05T09:31:49.919Z,7.53
2023-01-05T09:34:21.004Z,9.40
2023-01-05T09:36:49.061Z,9.35
2023-01-05T09:39:17.132Z,12.02
2023-01-05T09:41:49.529Z,10.48
2023-01-05T09:44:33.820Z,8.70
2023-01-05T09:47:11.228Z,7.00
2023-01-05T09:49:41.375Z,6.78
2023-01-05T09:52:11.855Z,7.13
2023-01-05T09:54:41.164Z,8.15
2023-01-05T09:57:33.137Z,8.38
2023-01-05T10:00:06.937Z,7.32
2023-01-05T10:02:51.493Z,9.93
2023-01-05T10:05:20.253Z,7.72
2023-01-05T10:08:05.023Z,9.65
2023-01-05T10:11:11.364Z,7.50
2023-01-05T10:13:44.376Z,8.95
2023-01-05T10:16:18.169Z,8.73
2023-01-05T10:18:47.390Z,8.60
2023-01-05T10:21:49.415Z,9.45
2023-01-05T10:24:34.276Z,8.77
2023-01-05T10:27:35.771Z,11.38
2023-01-05T10:30:41.818Z,10.18
2023-01-05T10:33:45.705Z,7.93
2023-01-05T10:40:21.219Z,8.70
2023-01-05T10:43:07.645Z,5.05
2023-01-05T10:45:57.303Z,6.15
2023-01-05T10:48:34.561Z,7.97
2023-01-05T10:51:04.467Z,5.95
2023-01-05T10:53:36.644Z,4.93
2023-01-05T10:56:24.677Z,4.93
2023-01-05T10:59:09.525Z,8.07
2023-01-05T11:01:39.292Z,6.43
2023-01-05T11:04:35.405Z,6.00
2023-01-05T11:07:08.163Z,6.75
2023-01-05T11:09:41.767Z,5.97
2023-01-05T11:12:20.556Z,6.72
2023-01-05T11:14:58.831Z,5.22
2023-01-05T11:17:29.365Z,10.05
2023-01-05T11:19:59.137Z,8.40
2023-01-05T11:22:36.812Z,6.88
2023-01-05T11:25:34.157Z,9.05
2023-01-05T11:28:13.040Z,10.63
2023-01-05T11:31:03.208Z,7.00
2023-01-05T11:33:35.320Z,10.30
2023-01-05T11:36:05.928Z,9.27
2023-01-05T11:38:34.903Z,7.50
2023-01-05T11:41:03.072Z,8.55
2023-01-05T11:43:33.780Z,13.57
2023-01-05T11:46:04.569Z,7.60
2023-01-05T11:48:35.402Z,10.70
2023-01-05T11:51:03.910Z,11.02
2023-01-05T11:53:34.841Z,7.88
2023-01-05T11:56:27.258Z,9.48
2023-01-05T11:58:57.404Z,8.82
2023-01-05T12:01:31.407Z,12.50
2023-01-05T12:04:05.375Z,8.55
2023-01-05T12:06:39.485Z,7.65
2023-01-05T12:09:24.104Z,13.20
2023-01-05T12:12:18.374Z,10.10
2023-01-05T12:15:17.612Z,8.43
2023-01-05T12:18:08.671Z,5.22
2023-01-05T12:20:57.927Z,8.43
2023-01-05T12:23:53.753Z,8.45
2023-01-05T12:26:35.366Z,9.70
2023-01-05T12:35:43.727Z,11.98
2023-01-05T12:38:46.968Z,14.80
2023-01-05T12:41:23.869Z,16.75
2023-01-05T12:44:16.083Z,14.95
2023-01-05T12:47:03.961Z,7.88
2023-01-05T12:49:39.828Z,10.10
2023-01-05T12:52:30.059Z,12.88
2023-01-05T12:55:17.957Z,14.25
2023-01-05T12:58:03.825Z,13.48
2023-01-05T13:00:37.189Z,11.32
2023-01-05T13:03:16.147Z,10.90
2023-01-05T13:05:54.598Z,11.02
2023-01-05T13:08:44.854Z,13.23
2023-01-05T13:11:21.679Z,12.35
2023-01-05T13:13:59.413Z,14.25
2023-01-05T13:16:36.238Z,17.88
2023-01-05T13:19:07.426Z,28.92
2023-01-05T13:21:37.571Z,15.07
2023-01-05T13:24:29.220Z,14.38
2023-01-05T13:29:43.711Z,17.75
2023-01-05T13:32:16.932Z,13.85
2023-01-05T13:34:47.796Z,11.18
2023-01-05T13:37:24.106Z,14.98
2023-01-05T13:40:33.753Z,11.70
2023-01-05T13:43:52.577Z,11.48
2023-01-05T13:46:46.786Z,14.05
2023-01-05T13:49:55.596Z,11.60
2023-01-05T13:53:06.440Z,10.80
2023-01-05T13:55:39.397Z,15.75
2023-01-05T13:58:19.034Z,12.55
2023-01-05T14:00:53.395Z,10.98
2023-01-05T14:03:30.620Z,12.88
2023-01-05T14:06:01.931Z,9.13
2023-01-05T14:08:42.314Z,11.18
2023-01-05T14:11:22.761Z,9.20
2023-01-05T14:17:00.807Z,11.35
2023-01-05T14:22:24.029Z,11.77
2023-01-05T14:24:54.276Z,14.48
2023-01-05T14:27:25.787Z,8.10
2023-01-05T14:29:53.676Z,10.32
2023-01-05T14:32:41.039Z,17.35
2023-01-05T14:35:35.862Z,13.35
2023-01-05T14:38:19.450Z,16.00
2023-01-05T14:40:52.342Z,10.85
2023-01-05T14:43:33.639Z,10.10
2023-01-05T14:46:07.424Z,15.07
2023-01-05T14:48:49.495Z,11.27
2023-01-05T14:51:22.538Z,9.80
2023-01-05T14:53:53.196Z,10.25
2023-01-05T14:56:28.219Z,8.18
2023-01-05T14:59:14.722Z,9.73
2023-01-05T15:01:54.264Z,14.13
2023-01-05T15:04:42.107Z,13.77
2023-01-05T15:07:15.939Z,12.57
2023-01-05T15:10:08.103Z,14.32
2023-01-05T15:12:47.655Z,8.63
2023-01-05T15:15:40.840Z,17.92
2023-01-05T15:18:18.866Z,16.20
2023-01-05T15:21:12.070Z,13.45
2023-01-05T15:24:13.559Z,20.75
2023-01-05T15:26:47.684Z,15.50
2023-01-05T15:29:39.259Z,11.88
2023-01-05T15:32:41.508Z,14.95
2023-01-05T15:35:36.839Z,10.50
2023-01-05T15:38:26.188Z,14.75
2023-01-05T15:41:07.792Z,17.52
2023-01-05T15:46:04.606Z,11.75
2023-01-05T15:48:36.122Z,14.20
2023-01-05T15:53:39.554Z,12.68
2023-01-05T15:56:25.560Z,12.52
2023-01-05T15:58:58.379Z,16.35
2023-01-05T16:01:36.026Z,14.02
2023-01-05T16:04:15.110Z,11.98
2023-01-05T16:06:46.423Z,12.63
2023-01-05T16:10:04.272Z,13.20
2023-01-05T16:12:33.303Z,20.10
2023-01-05T16:15:05.928Z,12.05
2023-01-05T16:17:36.024Z,12.18
2023-01-05T16:20:21.858Z,15.20
2023-01-05T16:23:13.399Z,14.13
2023-01-05T16:25:52.321Z,14.80
2023-01-05T16:28:25.357Z,17.40
2023-01-05T16:30:55.833Z,13.20
2023-01-05T16:33:29.060Z,16.60
2023-01-05T16:36:19.903Z,11.77
2023-01-05T16:38:48.415Z,14.80
2023-01-05T16:41:19.079Z,16.25
2023-01-05T16:43:55.882Z,9.35
2023-01-05T16:46:26.571Z,21.08
2023-01-05T16:49:06.941Z,12.65
2023-01-05T16:51:40.714Z,15.38
2023-01-05T16:54:37.351Z,15.55
2023-01-05T16:57:30.081Z,18.92
2023-01-05T16:59:58.287Z,12.90
2023-01-05T17:02:45.661Z,14.63
2023-01-05T17:05:20.226Z,11.13
2023-01-05T17:07:51.541Z,14.48
2023-01-05T17:10:25.645Z,13.20
2023-01-05T17:13:08.396Z,12.80
2023-01-05T17:15:37.698Z,14.70
2023-01-05T17:18:34.273Z,11.38
2023-01-05T17:21:06.381Z,15.35
2023-01-05T17:23:49.601Z,17.05
2023-01-05T17:26:22.582Z,13.57
2023-01-05T17:28:51.808Z,15.48
2023-01-05T17:31:19.741Z,19.02
2023-01-05T17:33:47.674Z,13.43
2023-01-05T17:38:48.722Z,17.90
2023-01-05T17:41:17.223Z,14.27
2023-01-05T17:43:46.120Z,15.02
2023-01-05T17:46:29.815Z,13.77
2023-01-05T17:49:01.599Z,12.88
2023-01-05T17:51:34.083Z,14.45
2023-01-05T17:54:04.346Z,14.45
2023-01-05T17:59:01.163Z,13.48
2023-01-05T18:01:29.212Z,14.35
2023-01-05T18:03:57.284Z,15.90
2023-01-05T18:06:25.256Z,16.00
2023-01-05T18:08:53.153Z,20.55
2023-01-05T18:11:21.063Z,15.07
2023-01-05T18:13:49.026Z,12.60
2023-01-05T18:16:17.393Z,17.58
2023-01-05T18:18:45.461Z,15.63
2023-01-05T18:21:13.460Z,17.52
2023-01-05T18:23:41.424Z,20.25
2023-01-05T18:26:10.998Z,11.93
2023-01-05T18:28:39.444Z,15.18
2023-01-05T18:31:14.813Z,11.68
2023-01-05T18:33:43.167Z,13.90
2023-01-05T18:36:14.659Z,16.55
2023-01-05T18:38:43.374Z,17.27
2023-01-05T18:41:12.116Z,14.20
2023-01-05T18:43:40.677Z,15.00
2023-01-05T18:46:08.698Z,17.25
2023-01-05T18:48:36.696Z,22.63
2023-01-05T18:51:09.467Z,14.07
2023-01-05T18:53:40.773Z,16.20
2023-01-05T18:56:09.988Z,21.92
2023-01-05T18:58:38.449Z,16.60
2023-01-05T19:01:16.600Z,15.55
2023-01-05T19:03:44.659Z,19.02
2023-01-05T19:06:16.331Z,19.40
2023-01-05T19:08:49.984Z,16.05
2023-01-05T19:11:25.127Z,15.93
2023-01-05T19:13:55.904Z,24.60
2023-01-05T19:16:25.472Z,20.25
2023-01-05T19:18:59.483Z,18.83
2023-01-05T19:21:30.202Z,20.80
2023-01-05T19:24:00.238Z,15.02
2023-01-05T19:26:29.717Z,17.77
2023-01-05T19:28:57.821Z,15.77
2023-01-05T19:31:26.003Z,17.67
2023-01-05T19:33:55.096Z,17.70
2023-01-05T19:36:25.179Z,18.83
2023-01-05T19:38:53.149Z,22.02
2023-01-05T19:41:25.537Z,16.10
2023-01-05T19:43:55.112Z,19.77
2023-01-05T19:46:25.403Z,19.08
2023-01-05T19:48:53.777Z,14.93
2023-01-05T19:51:27.034Z,17.45
2023-01-05T19:53:59.155Z,21.50
2023-01-05T19:56:32.297Z,21.08
2023-01-05T19:59:05.209Z,22.40
2023-01-05T20:01:36.051Z,17.92
2023-01-05T20:04:04.555Z,19.85
2023-01-05T20:06:41.926Z,16.27
2023-01-05T20:09:15.898Z,18.15
2023-01-05T20:11:45.714Z,24.20
2023-01-05T20:14:17.839Z,16.38
2023-01-05T20:16:49.482Z,17.58
2023-01-05T20:19:18.015Z,17.50
2023-01-05T20:21:47.117Z,23.20
2023-01-05T20:24:18.480Z,20.13
2023-01-05T20:26:48.042Z,21.50
2023-01-05T20:29:17.619Z,21.15
2023-01-05T20:31:54.388Z,18.25
2023-01-05T20:34:24.293Z,18.00
2023-01-05T20:36:52.750Z,17.98
2023-01-05T20:39:23.762Z,20.35
2023-01-05T20:41:55.684Z,17.35
2023-01-05T20:44:27.869Z,21.27
2023-01-05T20:46:56.147Z,17.25
2023-01-05T20:49:24.652Z,23.50
2023-01-05T20:51:52.611Z,17.67
2023-01-05T20:54:20.559Z,17.58
2023-01-05T20:56:50.310Z,20.65
2023-01-05T20:59:23.995Z,15.70
2023-01-05T21:01:53.072Z,21.35
2023-01-05T21:04:22.124Z,15.13
2023-01-05T21:06:52.567Z,18.35
2023-01-05T21:09:20.665Z,21.67
2023-01-05T21:11:48.581Z,19.55
2023-01-05T21:14:16.762Z,16.05
2023-01-05T21:16:48.558Z,22.38
2023-01-05T21:19:19.846Z,14.50
2023-01-05T21:21:49.758Z,14.88
2023-01-05T21:24:18.184Z,19.40
2023-01-05T21:26:46.188Z,15.27
2023-01-05T21:29:16.298Z,20.27
2023-01-05T21:31:44.902Z,16.20
2023-01-05T21:34:14.755Z,18.15
2023-01-05T21:36:46.287Z,19.20
2023-01-05T21:39:19.489Z,19.67
2023-01-05T21:42:08.046Z,22.27
2023-01-05T21:44:36.319Z,20.27
2023-01-05T21:47:06.536Z,16.98
2023-01-05T21:49:35.480Z,20.05
2023-01-05T21:52:21.920Z,15.75
2023-01-05T21:55:08.396Z,13.75
2023-01-05T21:57:36.363Z,16.35
2023-01-05T22:00:04.788Z,18.83
2023-01-05T22:02:32.963Z,16.33
2023-01-05T22:05:00.877Z,15.00
2023-01-05T22:07:28.945Z,19.63
2023-01-05T22:09:56.934Z,20.27
2023-01-05T22:12:24.973Z,21.35
2023-01-05T22:14:52.887Z,21.70
2023-01-05T22:17:20.788Z,17.40
2023-01-05T22:19:48.712Z,20.42
2023-01-05T22:22:24.196Z,17.30
2023-01-05T22:24:55.755Z,16.35
2023-01-05T22:27:23.692Z,18.05
2023-01-05T22:29:51.561Z,18.52
2023-01-05T22:32:19.567Z,21.85
2023-01-05T22:34:47.540Z,18.95
2023-01-05T22:37:17.202Z,15.75
2023-01-05T22:39:45.190Z,17.65
2023-01-05T22:42:13.126Z,14.55
2023-01-05T22:44:41.170Z,20.05
2023-01-05T22:47:09.162Z,23.10
2023-01-05T22:49:37.180Z,17.08
2023-01-05T22:52:05.518Z,17.40
2023-01-05T22:54:34.048Z,19.52
2023-01-05T22:57:01.995Z,19.20
2023-01-05T22:59:29.869Z,17.30
2023-01-05T23:01:57.873Z,16.80
2023-01-05T23:04:25.819Z,16.75
2023-01-05T23:06:53.745Z,14.80
2023-01-05T23:09:22.045Z,15.43
2023-01-05T23:11:50.048Z,19.08
2023-01-05T23:14:20.049Z,16.15
2023-01-05T23:16:48.390Z,20.17
2023-01-05T23:19:18.007Z,19.42
2023-01-05T23:21:46.289Z,19.98
2023-01-05T23:24:14.266Z,19.35
2023-01-05T23:26:42.589Z,19.15
2023-01-05T23:29:10.574Z,18.00
2023-01-05T23:31:38.574Z,20.20
2023-01-05T23:34:06.498Z,18.15
2023-01-05T23:36:34.472Z,25.70
2023-01-05T23:39:02.407Z,25.75
2023-01-05T23:41:30.329Z,24.90
2023-01-05T23:43:58.169Z,21.65
2023-01-05T23:46:26.218Z,19.05
2023-01-05T23:48:54.367Z,24.45
2023-01-05T23:51:22.713Z,26.88
2023-01-05T23:53:53.649Z,24.85
2023-01-05T23:56:24.735Z,20.70
2023-01-05T23:59:05.482Z,19.13
